Terminal Aerodrome Forecast
Issued by NWS

Home | Current Version | Previous Version | Text Only | Print | Product List | Glossary On
Versions: 1 2 3 4 5 6 7 8 9 10 11 12 13
000
FTUS42 KTAE 312300
TAFVLD
TAF
KVLD 312339Z 0100/0124 26004KT P6SM SCT250
     FM012000 36005KT P6SM VCTS SCT060CB SCT250=

USA.gov is the U.S. government's official web portal to all federal, state and local government web resources and services.